M I D A S
Marine Information and Data Acquisition System
Tripno 1141 of the Zeeleeuw from 2006-07-26 06:50:28 to 2006-07-26 14:25:48
Back to CruiseResearch ActivitiesStationsMapUnderway DataData graphs

EquipmentUnitsComment
TimeDGPSUTC
LatitudeDGPSDM.mWGS84
LongitudeDGPSDM.mWGS84
TemperatureSBE03/SBE38deg celciusITS90
ConductivitySBE21S/mITS90
SalinitySBE21 Practical Salinity Units
ChlorophylAChelsea fluorimeterg/lCalibrated in Aceton
Missing or incorrect values are displayed as -999
Sea surface data collected by the RV Zeeleeuw from 2006-07-26 06:41:01 to 2006-07-26 14:37:47
Time Latitude Longitude Temperature Conductivity Salinity ChlorophylA
2006-07-26 06:42:06 51°13.612 2°56.042 26.8555 0.077867 0.355782 6.769657
2006-07-26 06:43:06 51°13.63 2°55.953 26.8473 0.077867 0.355782 6.769657
2006-07-26 06:44:06 51°13.659 2°55.87 26.8671 0.077867 0.355804 6.735947
2006-07-26 06:45:06 51°13.693 2°55.788 26.8762 0.077867 0.355818 6.735947
2006-07-26 06:46:06 51°13.712 2°55.74 26.8883 0.077867 0.355818 6.735947
2006-07-26 06:47:06 51°13.72 2°55.755 26.8704 0.077867 0.355844 6.735947
2006-07-26 06:48:06 51°13.711 2°55.729 26.8795 0.077867 0.355849 6.735947
2006-07-26 06:49:06 51°13.741 2°55.711 26.8821 0.077867 0.355858 6.702238
2006-07-26 06:50:06 51°13.832 2°55.634 26.7724 0.077867 0.355867 6.735947
2006-07-26 06:51:06 51°13.967 2°55.536 26.7757 0.077867 0.355876 6.735947
2006-07-26 06:52:06 51°14.09 2°55.449 26.8484 0.077867 0.355885 6.702238
2006-07-26 06:53:06 51°14.198 2°55.354 26.8696 0.077867 0.355902 6.702238
2006-07-26 06:54:06 51°14.291 2°55.223 24.1321 1.932661 11.121179 8.85964
2006-07-26 06:55:06 51°14.373 2°55.069 24.0042 3.737262 23.990069 8.084324
2006-07-26 06:56:06 51°14.493 2°54.863 23.812 4.156785 27.112795 8.219161
2006-07-26 06:57:06 51°14.658 2°54.678 23.2747 4.405255 29.091886 8.320289
2006-07-26 06:58:06 51°14.828 2°54.499 23.0774 4.626576 31.061451 8.85964
2006-07-26 06:59:06 51°14.996 2°54.32 22.9204 4.684682 31.635173 8.691093
2006-07-26 07:00:06 51°15.16 2°54.132 22.8645 4.698182 31.83794 8.151742
2006-07-26 07:01:06 51°15.328 2°53.94 22.8015 4.702507 31.933953 8.118033
2006-07-26 07:02:06 51°15.51 2°53.802 22.7842 4.699238 31.93465 8.151742
2006-07-26 07:03:06 51°15.693 2°53.665 22.7467 4.698078 31.948455 7.983195
2006-07-26 07:04:06 51°15.876 2°53.532 22.6671 4.696603 31.965791 7.679811
2006-07-26 07:05:06 51°16.065 2°53.42 22.592 4.693229 31.994883 7.780939
2006-07-26 07:06:06 51°16.252 2°53.304 22.5334 4.693336 32.052188 8.050614
2006-07-26 07:07:06 51°16.44 2°53.19 22.4851 4.692599 32.084828 7.949486
2006-07-26 07:08:06 51°16.619 2°53.048 22.4092 4.693021 32.131938 7.646101
2006-07-26 07:09:02 51°16.715 2°52.785 22.3019 4.692812 32.186867 7.275298
2006-07-26 07:10:02 51°16.721 2°52.533 22.1941 4.696715 32.297854 7.309007
2006-07-26 07:11:02 51°16.707 2°52.412 22.1527 4.697349 32.368496 7.275298
2006-07-26 07:12:02 51°16.707 2°52.33 22.1281 4.697244 32.402206 7.241589
2006-07-26 07:13:02 51°16.715 2°52.254 22.1044 4.698405 32.427444 7.17417
2006-07-26 07:14:01 51°16.737 2°52.172 22.0822 4.698616 32.44894 7.106751
2006-07-26 07:15:02 51°16.765 2°52.11 22.0693 4.697246 32.456696 7.073042
2006-07-26 07:16:02 51°16.796 2°52.083 22.0436 4.700409 32.49241 7.039332
2006-07-26 07:17:02 51°16.822 2°52.099 22.0219 4.700304 32.516143 7.005623
2006-07-26 07:18:02 51°16.835 2°52.158 22.0125 4.699356 32.51903 6.971913
2006-07-26 07:19:02 51°16.839 2°52.231 22.0075 4.695454 32.495964 6.971913
2006-07-26 07:20:02 51°16.836 2°52.303 22.0133 4.696192 32.50578 7.005623
2006-07-26 07:21:02 51°16.827 2°52.374 22.0151 4.695665 32.49811 7.039332
2006-07-26 07:22:02 51°16.8 2°52.439 22.0323 4.697036 32.503102 7.073042
2006-07-26 07:23:02 51°16.746 2°52.479 22.0436 4.696825 32.494303 7.039332
2006-07-26 07:24:02 51°16.68 2°52.479 22.0536 4.695032 32.471726 7.073042
2006-07-26 07:25:02 51°16.614 2°52.438 22.0633 4.695031 32.459976 7.14046
2006-07-26 07:26:02 51°16.564 2°52.359 22.0682 4.694715 32.451401 7.14046
2006-07-26 07:27:02 51°16.552 2°52.261 22.0746 4.69482 32.448134 7.17417
2006-07-26 07:28:02 51°16.575 2°52.191 22.0623 4.695031 32.447725 7.17417
2006-07-26 07:29:02 51°16.612 2°52.174 22.0474 4.695559 32.463547 7.14046
2006-07-26 07:30:02 51°16.655 2°52.191 22.0449 4.696192 32.475597 7.106751
2006-07-26 07:31:01 51°16.692 2°52.229 22.0453 4.696613 32.479886 7.073042
2006-07-26 07:32:02 51°16.711 2°52.293 22.0438 4.696508 32.482136 7.106751
2006-07-26 07:33:02 51°16.703 2°52.348 22.047 4.695348 32.471109 7.106751
2006-07-26 07:34:02 51°16.682 2°52.38 22.0561 4.694399 32.460696 7.14046
2006-07-26 07:35:02 51°16.661 2°52.397 22.0591 4.695981 32.465791 7.106751
2006-07-26 07:36:02 51°16.636 2°52.421 22.0634 4.695242 32.460587 7.14046
2006-07-26 07:37:02 51°16.605 2°52.478 22.0732 4.695664 32.456704 7.073042
2006-07-26 07:38:02 51°16.567 2°52.539 22.0877 4.694926 32.445889 7.106751
2006-07-26 07:39:02 51°16.533 2°52.573 22.0919 4.694293 32.432324 7.17417
2006-07-26 07:40:02 51°16.502 2°52.592 22.1037 4.694715 32.428451 7.207879
2006-07-26 07:41:02 51°16.464 2°52.623 22.117 4.694609 32.421522 7.17417
2006-07-26 07:42:02 51°16.38 2°52.626 22.1428 4.694081 32.405227 7.207879
2006-07-26 07:43:02 51°16.303 2°52.559 22.158 4.693132 32.38162 7.241589
2006-07-26 07:44:02 51°16.239 2°52.472 22.1819 4.693764 32.374315 7.241589
2006-07-26 07:45:02 51°16.189 2°52.395 22.2179 4.69271 32.346893 7.241589
2006-07-26 07:46:02 51°16.145 2°52.327 22.2467 4.693025 32.325016 7.309007
2006-07-26 07:47:02 51°16.103 2°52.266 22.2701 4.69313 32.304584 7.309007
2006-07-26 07:48:02 51°16.063 2°52.21 22.2887 4.692286 32.279901 7.275298
2006-07-26 07:49:02 51°16.023 2°52.155 22.3023 4.693235 32.276108 7.275298
2006-07-26 07:50:02 51°15.983 2°52.103 22.3133 4.693341 32.267842 7.241589
2006-07-26 07:51:02 51°15.944 2°52.051 22.3221 4.693762 32.261009 7.275298
2006-07-26 07:52:01 51°15.905 2°52 22.3301 4.692708 32.247859 7.275298
2006-07-26 07:53:02 51°15.865 2°51.947 22.3406 4.692813 32.242125 7.275298
2006-07-26 07:54:02 51°15.827 2°51.894 22.3521 4.692602 32.232453 7.275298
2006-07-26 07:55:02 51°15.788 2°51.841 22.3641 4.688911 32.196036 7.241589
2006-07-26 07:56:02 51°15.75 2°51.788 22.3741 4.692918 32.216787 7.241589
2006-07-26 07:57:02 51°15.712 2°51.734 22.3789 4.692179 32.205087 7.275298
2006-07-26 07:58:02 51°15.676 2°51.68 22.3835 4.692918 32.20624 7.275298
2006-07-26 07:59:02 51°15.645 2°51.625 22.3878 4.691652 32.194511 7.309007
2006-07-26 08:00:02 51°15.619 2°51.569 22.3919 4.692179 32.19555 7.309007
2006-07-26 08:01:02 51°15.595 2°51.513 22.395 4.692285 32.19335 7.342717
2006-07-26 08:02:02 51°15.571 2°51.457 22.4034 4.692601 32.193773 7.309007
2006-07-26 08:03:02 51°15.55 2°51.398 22.4041 4.691968 32.184902 7.342717
2006-07-26 08:04:02 51°15.531 2°51.324 22.4028 4.691863 32.180081 7.342717
2006-07-26 08:05:02 51°15.519 2°51.234 22.4028 4.691968 32.183397 7.443845
2006-07-26 08:06:02 51°15.537 2°51.111 22.4126 4.692284 32.185325 7.410136
2006-07-26 08:07:02 51°15.597 2°51.03 22.4168 4.692073 32.175686 7.477554
2006-07-26 08:08:01 51°15.662 2°51.037 22.429 4.692179 32.172988 7.443845
2006-07-26 08:09:02 51°15.689 2°51.096 22.4142 4.692917 32.170138 7.309007
2006-07-26 08:10:02 51°15.683 2°51.126 22.3918 4.693233 32.183087 7.275298
2006-07-26 08:11:02 51°15.664 2°51.136 22.3835 4.693655 32.201872 7.275298
2006-07-26 08:12:02 51°15.599 2°51.169 22.3734 4.694499 32.216383 7.241589
2006-07-26 08:13:02 51°15.492 2°51.021 22.3827 4.695659 32.231826 7.309007
2006-07-26 08:14:02 51°15.374 2°50.747 22.4116 4.69471 32.216497 7.376426
2006-07-26 08:15:02 51°15.239 2°50.443 22.3956 4.694604 32.197622 7.477554
2006-07-26 08:16:02 51°15.117 2°50.119 22.4257 4.692601 32.190763 7.612392
2006-07-26 08:17:02 51°15.012 2°49.78 22.5204 4.69144 32.151803 7.578683
2006-07-26 08:18:02 51°14.913 2°49.438 22.5815 4.694392 32.107018 7.511264
2006-07-26 08:19:02 51°14.814 2°49.096 22.6053 4.694602 32.072297 7.511264
2006-07-26 08:20:02 51°14.715 2°48.753 22.5901 4.694285 32.056463 7.612392
2006-07-26 08:21:02 51°14.616 2°48.41 22.5672 4.693442 32.060445 7.814648
2006-07-26 08:22:02 51°14.513 2°48.068 22.5316 4.696078 32.094034 7.915777
2006-07-26 08:23:02 51°14.423 2°47.721 22.4438 4.699875 32.156491 7.949486
2006-07-26 08:24:02 51°14.335 2°47.377 22.3725 4.70304 32.236795 7.848358
2006-07-26 08:25:02 51°14.245 2°47.038 22.3161 4.706627 32.320149 7.71352
2006-07-26 08:26:02 51°14.156 2°46.701 22.2438 4.709897 32.390754 7.544973
2006-07-26 08:27:02 51°14.064 2°46.369 22.1933 4.71285 32.456599 7.376426
2006-07-26 08:28:02 51°13.971 2°46.039 22.1302 4.716331 32.527219 7.275298
2006-07-26 08:29:02 51°13.902 2°45.696 22.0979 4.717597 32.575295 7.17417
2006-07-26 08:30:02 51°13.83 2°45.354 22.0698 4.718231 32.606296 7.207879
2006-07-26 08:31:02 51°13.753 2°45.013 22.0645 4.718125 32.621885 7.241589
2006-07-26 08:32:02 51°13.668 2°44.674 22.0472 4.718442 32.634084 7.17417
2006-07-26 08:33:02 51°13.58 2°44.335 22.0239 4.718759 32.648861 7.106751
2006-07-26 08:34:02 51°13.484 2°44.003 22.0242 4.720446 32.674791 7.039332
2006-07-26 08:35:02 51°13.391 2°43.676 22.0306 4.722028 32.690143 6.904494
2006-07-26 08:36:02 51°13.3 2°43.351 22.0241 4.723399 32.694595 6.904494
2006-07-26 08:37:02 51°13.193 2°43.038 22.0037 4.725297 32.714461 6.870785
2006-07-26 08:38:02 51°13.085 2°42.724 21.9926 4.727617 32.748439 6.837076
2006-07-26 08:39:02 51°12.965 2°42.422 21.9795 4.729832 32.779568 6.837076
2006-07-26 08:40:02 51°12.846 2°42.119 21.9809 4.73268 32.805293 6.803366
2006-07-26 08:41:02 51°12.752 2°41.793 21.9906 4.738374 32.845887 6.803366
2006-07-26 08:42:03 51°12.649 2°41.465 22.002 4.742592 32.872944 6.769657
2006-07-26 08:43:02 51°12.532 2°41.164 22.0345 4.747443 32.900762 6.769657
2006-07-26 08:44:03 51°12.433 2°40.831 22.0659 4.759359 32.969924 6.769657
2006-07-26 08:45:02 51°12.318 2°40.521 22.0939 4.774123 33.062165 6.735947
2006-07-26 08:46:02 51°12.195 2°40.21 22.113 4.784985 33.123028 6.735947
2006-07-26 08:47:02 51°12.072 2°39.9 22.1236 4.796902 33.205057 6.735947
2006-07-26 08:48:02 51°11.949 2°39.59 22.1259 4.810822 33.30367 6.702238
2006-07-26 08:49:02 51°11.827 2°39.281 22.1265 4.820103 33.372556 6.702238
2006-07-26 08:50:02 51°11.704 2°38.976 22.1168 4.834551 33.48526 6.702238
2006-07-26 08:51:03 51°11.58 2°38.665 22.0849 4.847418 33.595765 6.668529
2006-07-26 08:52:02 51°11.462 2°38.364 22.0591 4.857332 33.698789 6.634819
2006-07-26 08:53:02 51°11.343 2°38.057 22.0188 4.868828 33.811136 6.60111
2006-07-26 08:54:02 51°11.22 2°37.754 21.9906 4.878321 33.914468 6.634819
2006-07-26 08:55:02 51°11.099 2°37.451 21.9502 4.885493 33.992386 6.634819
2006-07-26 08:56:02 51°10.977 2°37.15 21.9248 4.892243 34.074124 6.60111
2006-07-26 08:57:02 51°10.849 2°36.855 21.9164 4.895618 34.118288 6.60111
2006-07-26 08:58:02 51°10.711 2°36.57 21.908 4.89815 34.144561 6.60111
2006-07-26 08:59:02 51°10.578 2°36.278 21.8983 4.899099 34.160629 6.60111
2006-07-26 09:00:02 51°10.446 2°35.986 21.8932 4.900154 34.173206 6.60111
2006-07-26 09:01:02 51°10.283 2°35.736 21.8877 4.898888 34.170869 6.634819
2006-07-26 09:02:02 51°10.126 2°35.475 21.8945 4.898045 34.165886 6.634819
2006-07-26 09:03:02 51°9.968 2°35.218 21.9002 4.900576 34.180293 6.634819
2006-07-26 09:04:02 51°9.801 2°34.973 21.927 4.903423 34.197172 6.634819
2006-07-26 09:05:02 51°9.674 2°34.674 21.9472 4.906165 34.195919 6.702238
2006-07-26 09:06:02 51°9.573 2°34.337 22.0131 4.907536 34.184493 6.668529
2006-07-26 09:07:03 51°9.452 2°34.009 22.054 4.905214 34.121636 6.702238
2006-07-26 09:08:02 51°9.323 2°33.699 22.0718 4.904687 34.089036 6.668529
2006-07-26 09:09:02 51°9.191 2°33.381 22.1063 4.903526 34.062821 6.668529
2006-07-26 09:10:02 51°9.058 2°33.07 22.1231 4.902998 34.030859 6.702238
2006-07-26 09:11:03 51°8.924 2°32.763 22.0876 4.908588 34.084046 6.702238
2006-07-26 09:12:02 51°8.791 2°32.468 22.1179 4.908483 34.090732 6.735947
2006-07-26 09:13:02 51°8.638 2°32.189 22.1465 4.90806 34.063328 6.769657
2006-07-26 09:14:02 51°8.485 2°31.906 22.1883 4.908798 34.045529 6.769657
2006-07-26 09:15:03 51°8.28 2°31.722 22.1927 4.908481 34.015287 6.769657
2006-07-26 09:16:02 51°8.061 2°31.612 22.1164 4.91154 34.044414 6.769657
2006-07-26 09:17:02 51°7.864 2°31.681 22.0905 4.912701 34.113954 6.769657
2006-07-26 09:18:02 51°7.815 2°31.808 22.0876 4.919557 34.177599 6.735947
2006-07-26 09:19:02 51°7.849 2°31.888 22.0921 4.920823 34.190157 6.769657
2006-07-26 09:20:02 51°7.899 2°31.919 22.0854 4.920401 34.185254 6.769657
2006-07-26 09:21:02 51°7.938 2°31.914 22.0802 4.920928 34.191518 6.769657
2006-07-26 09:22:02 51°8.013 2°31.947 22.0676 4.919663 34.187567 6.769657
2006-07-26 09:23:03 51°8.046 2°32.025 22.0497 4.918819 34.190675 6.803366
2006-07-26 09:24:02 51°8.039 2°32.111 22.0389 4.916815 34.18904 6.803366
2006-07-26 09:25:02 51°8.026 2°32.198 22.0321 4.916077 34.189204 6.837076
2006-07-26 09:26:02 51°8.015 2°32.279 22.0392 4.914917 34.185536 6.803366
2006-07-26 09:27:03 51°8.004 2°32.356 22.0493 4.914284 34.176287 6.837076
2006-07-26 09:28:02 51°7.996 2°32.427 22.0606 4.914917 34.171533 6.803366
2006-07-26 09:29:03 51°8 2°32.498 22.0794 4.915128 34.165106 6.803366
2006-07-26 09:30:02 51°8.018 2°32.572 22.0963 4.916709 34.162385 6.803366
2006-07-26 09:31:02 51°8.039 2°32.648 22.1112 4.916287 34.147809 6.769657
2006-07-26 09:32:02 51°8.059 2°32.725 22.1232 4.916603 34.134701 6.803366
2006-07-26 09:33:02 51°8.077 2°32.802 22.1277 4.915654 34.121404 6.837076
2006-07-26 09:34:03 51°8.096 2°32.88 22.1412 4.914705 34.10972 6.837076
2006-07-26 09:35:02 51°8.117 2°32.95 22.1712 4.913966 34.090574 6.803366
2006-07-26 09:36:03 51°8.14 2°33.021 22.1886 4.914071 34.072661 6.837076
2006-07-26 09:37:02 51°8.163 2°33.089 22.2109 4.91386 34.054446 6.803366
2006-07-26 09:38:03 51°8.186 2°33.16 22.2136 4.913754 34.040274 6.803366
2006-07-26 09:39:02 51°8.208 2°33.229 22.2276 4.913965 34.036042 6.803366
2006-07-26 09:40:02 51°8.232 2°33.3 22.2352 4.91407 34.028326 6.803366
2006-07-26 09:41:02 51°8.254 2°33.371 22.243 4.913648 34.019715 6.769657
2006-07-26 09:42:02 51°8.277 2°33.443 22.2411 4.913648 34.01705 6.803366
2006-07-26 09:43:03 51°8.3 2°33.516 22.2442 4.913648 34.014385 6.803366
2006-07-26 09:44:02 51°8.323 2°33.585 22.2505 4.912699 34.004348 6.803366
2006-07-26 09:45:02 51°8.348 2°33.652 22.2635 4.912383 33.998694 6.803366
2006-07-26 09:46:02 51°8.374 2°33.717 22.2662 4.912382 33.988046 6.803366
2006-07-26 09:47:02 51°8.4 2°33.784 22.2723 4.912066 33.981865 6.803366
2006-07-26 09:48:03 51°8.427 2°33.85 22.2772 4.91196 33.976259 6.803366
2006-07-26 09:49:03 51°8.454 2°33.915 22.2733 4.911433 33.969507 6.837076
2006-07-26 09:50:02 51°8.481 2°33.981 22.2734 4.910906 33.967009 6.837076
2006-07-26 09:51:02 51°8.507 2°34.048 22.2644 4.909429 33.957676 6.837076
2006-07-26 09:52:03 51°8.533 2°34.116 22.2602 4.908586 33.958038 6.837076
2006-07-26 09:53:02 51°8.558 2°34.181 22.2667 4.907636 33.950138 6.803366
2006-07-26 09:54:02 51°8.583 2°34.249 22.2515 4.907425 33.947969 6.837076
2006-07-26 09:55:03 51°8.609 2°34.315 22.2691 4.906054 33.941579 6.803366
2006-07-26 09:56:03 51°8.635 2°34.382 22.2674 4.906054 33.931483 6.769657
2006-07-26 09:57:01 51°8.659 2°34.447 22.2551 4.905738 33.931684 6.769657
2006-07-26 09:58:03 51°8.692 2°34.509 22.2279 4.904367 33.937514 6.769657
2006-07-26 09:59:03 51°8.728 2°34.565 22.2062 4.902047 33.935448 6.803366
2006-07-26 10:00:02 51°8.764 2°34.622 22.1893 4.899516 33.929615 6.803366
2006-07-26 10:01:03 51°8.802 2°34.681 22.1765 4.898462 33.934192 6.769657
2006-07-26 10:02:02 51°8.838 2°34.739 22.1634 4.897091 33.934183 6.803366
2006-07-26 10:03:03 51°8.874 2°34.802 22.1584 4.894138 33.922405 6.769657
2006-07-26 10:04:03 51°8.907 2°34.884 22.1701 4.893716 33.921255 6.803366
2006-07-26 10:05:02 51°8.935 2°34.972 22.188 4.892767 33.903227 6.769657
2006-07-26 10:06:03 51°8.958 2°35.068 22.1995 4.890552 33.875375 6.837076
2006-07-26 10:07:02 51°8.973 2°35.139 22.2018 4.885911 33.831885 6.803366
2006-07-26 10:08:03 51°8.986 2°35.178 22.2129 4.886966 33.834771 6.803366
2006-07-26 10:09:02 51°8.997 2°35.193 22.2222 4.886438 33.822189 6.769657
2006-07-26 10:10:03 51°9.006 2°35.197 22.2301 4.886544 33.816647 6.803366
2006-07-26 10:11:02 51°9.014 2°35.196 22.2308 4.886016 33.808314 6.803366
2006-07-26 10:12:03 51°9.033 2°35.268 22.2353 4.885278 33.800465 6.803366
2006-07-26 10:13:03 51°9.041 2°35.458 22.2366 4.882852 33.780579 6.837076
2006-07-26 10:14:03 51°9.057 2°35.671 22.2463 4.880848 33.763441 6.837076
2006-07-26 10:15:03 51°9.039 2°35.891 22.2423 4.877262 33.728748 6.904494
2006-07-26 10:16:02 51°9.017 2°36.108 22.2623 4.875469 33.713256 6.938204
2006-07-26 10:17:02 51°9.032 2°36.254 22.2867 4.873571 33.686397 6.938204
2006-07-26 10:18:02 51°9.054 2°36.365 22.3068 4.873676 33.666135 6.904494
2006-07-26 10:19:02 51°9.048 2°36.459 22.3107 4.873781 33.653792 6.904494
2006-07-26 10:20:02 51°9.048 2°36.539 22.3185 4.874625 33.658748 6.904494
2006-07-26 10:21:02 51°9.046 2°36.616 22.3287 4.875257 33.653652 6.904494
2006-07-26 10:22:02 51°9.044 2°36.69 22.3354 4.87589 33.654344 6.870785
2006-07-26 10:23:03 51°9.045 2°36.766 22.3473 4.876839 33.653805 6.837076
2006-07-26 10:24:03 51°9.046 2°36.847 22.354 4.876628 33.644814 6.870785
2006-07-26 10:25:03 51°9.048 2°36.93 22.3636 4.875784 33.631457 6.870785
2006-07-26 10:26:03 51°9.049 2°37.013 22.3719 4.87494 33.619156 6.870785
2006-07-26 10:27:03 51°9.051 2°37.094 22.3785 4.87378 33.603888 6.870785
2006-07-26 10:28:02 51°9.052 2°37.173 22.3853 4.872725 33.591014 6.870785
2006-07-26 10:29:03 51°9.054 2°37.252 22.4337 4.870721 33.565571 6.870785
2006-07-26 10:30:03 51°9.056 2°37.331 22.5047 4.8684 33.511056 6.870785
2006-07-26 10:31:03 51°9.059 2°37.41 22.5685 4.866606 33.442013 6.837076
2006-07-26 10:32:03 51°9.066 2°37.488 22.6027 4.866605 33.39634 6.837076
2006-07-26 10:33:03 51°9.078 2°37.564 22.6449 4.865128 33.359098 6.870785
2006-07-26 10:34:03 51°9.093 2°37.64 22.689 4.86576 33.333996 6.837076
2006-07-26 10:35:03 51°9.108 2°37.716 22.7279 4.866076 33.302396 6.837076
2006-07-26 10:36:02 51°9.125 2°37.791 22.7616 4.864599 33.259693 6.870785
2006-07-26 10:37:03 51°9.142 2°37.869 22.777 4.863016 33.227551 6.870785
2006-07-26 10:38:03 51°9.158 2°37.947 22.7733 4.86154 33.205477 6.904494
2006-07-26 10:39:03 51°9.175 2°38.026 22.7681 4.860274 33.199883 6.904494
2006-07-26 10:40:03 51°9.191 2°38.106 22.7637 4.858798 33.190112 6.938204
2006-07-26 10:41:02 51°9.204 2°38.181 22.7574 4.857743 33.183571 6.938204
2006-07-26 10:42:03 51°9.221 2°38.258 22.765 4.85595 33.173936 6.971913
2006-07-26 10:43:02 51°9.24 2°38.33 22.7786 4.854157 33.154064 6.971913
2006-07-26 10:44:03 51°9.259 2°38.402 22.7883 4.853313 33.139421 6.938204
2006-07-26 10:45:02 51°9.279 2°38.474 22.8056 4.851731 33.118116 6.971913
2006-07-26 10:46:03 51°9.297 2°38.549 22.8138 4.85036 33.095887 6.971913
2006-07-26 10:47:03 51°9.314 2°38.624 22.8206 4.848567 33.077075 7.005623
2006-07-26 10:48:02 51°9.33 2°38.698 22.8288 4.847618 33.063702 7.039332
2006-07-26 10:49:03 51°9.346 2°38.775 22.8402 4.845719 33.043079 7.039332
2006-07-26 10:50:02 51°9.362 2°38.85 22.8498 4.848566 33.053646 6.971913
2006-07-26 10:51:02 51°9.376 2°38.927 22.8473 4.847828 33.044443 6.971913
2006-07-26 10:52:03 51°9.39 2°39.005 22.8275 4.849305 33.056743 7.005623
2006-07-26 10:53:02 51°9.405 2°39.079 22.8028 4.847407 33.059033 6.971913
2006-07-26 10:54:03 51°9.42 2°39.154 22.7743 4.842872 33.044729 6.904494
2006-07-26 10:55:03 51°9.434 2°39.229 22.7436 4.835912 33.010835 6.904494
2006-07-26 10:56:03 51°9.448 2°39.303 22.7362 4.830112 32.986815 6.904494
2006-07-26 10:57:02 51°9.462 2°39.377 22.7453 4.825261 32.954262 6.904494
2006-07-26 10:58:03 51°9.477 2°39.453 22.7457 4.819882 32.904459 6.904494
2006-07-26 10:59:02 51°9.491 2°39.528 22.7578 4.815031 32.867853 6.971913
2006-07-26 11:00:03 51°9.505 2°39.606 22.7634 4.812078 32.836142 6.971913
2006-07-26 11:01:03 51°9.518 2°39.683 22.7614 4.808703 32.807301 6.971913
2006-07-26 11:02:02 51°9.531 2°39.76 22.7712 4.805328 32.782008 7.005623
2006-07-26 11:03:03 51°9.538 2°39.851 22.7552 4.802586 32.758016 7.073042
2006-07-26 11:04:03 51°9.534 2°39.954 22.7261 4.80227 32.769247 7.106751
2006-07-26 11:05:03 51°9.526 2°40.063 22.7387 4.798896 32.759119 7.14046
2006-07-26 11:06:03 51°9.499 2°40.168 22.7297 4.798052 32.745586 7.106751
2006-07-26 11:07:03 51°9.472 2°40.264 22.7498 4.801216 32.774335 7.106751
2006-07-26 11:08:02 51°9.463 2°40.334 22.806 4.805117 32.784947 7.106751
2006-07-26 11:09:03 51°9.462 2°40.391 22.8412 4.807226 32.762154 7.073042
2006-07-26 11:10:03 51°9.495 2°40.465 22.8585 4.808596 32.750423 7.17417
2006-07-26 11:11:03 51°9.576 2°40.504 22.8819 4.806487 32.720727 7.241589
2006-07-26 11:12:03 51°9.733 2°40.519 22.8 4.808068 32.716686 7.17417
2006-07-26 11:13:02 51°9.911 2°40.474 22.6953 4.799527 32.71345 7.275298
2006-07-26 11:14:03 51°10.068 2°40.314 22.6768 4.782655 32.655607 7.342717
2006-07-26 11:15:02 51°10.17 2°40.084 22.6552 4.77675 32.626571 7.275298
2006-07-26 11:16:03 51°10.2 2°39.813 22.6635 4.778754 32.653517 7.207879
2006-07-26 11:17:03 51°10.204 2°39.54 22.6111 4.785714 32.709335 7.17417
2006-07-26 11:18:03 51°10.214 2°39.266 22.6069 4.788668 32.763887 7.14046
2006-07-26 11:19:03 51°10.213 2°38.989 22.6356 4.792675 32.786484 7.073042
2006-07-26 11:20:02 51°10.22 2°38.715 22.602 4.798686 32.825449 7.073042
2006-07-26 11:21:03 51°10.24 2°38.433 22.5363 4.803327 32.8875 7.005623
2006-07-26 11:22:02 51°10.263 2°38.242 22.5295 4.803539 32.933533 6.904494
2006-07-26 11:23:03 51°10.294 2°38.157 22.5201 4.804488 32.943895 6.870785
2006-07-26 11:24:03 51°10.324 2°38.092 22.4776 4.809972 33.0009 6.803366
2006-07-26 11:25:03 51°10.332 2°37.878 22.4482 4.814824 33.069035 6.769657
2006-07-26 11:26:03 51°10.357 2°37.569 22.3655 4.820731 33.144926 6.735947
2006-07-26 11:27:03 51°10.393 2°37.251 22.3092 4.829485 33.268884 6.769657
2006-07-26 11:28:02 51°10.425 2°36.942 22.3014 4.833915 33.335875 6.735947
2006-07-26 11:29:03 51°10.495 2°36.648 22.2234 4.844567 33.4334 6.769657
2006-07-26 11:30:04 51°10.622 2°36.404 22.1302 4.839506 33.456494 6.837076
2006-07-26 11:31:04 51°10.82 2°36.394 22.0554 4.822001 33.377329 6.870785
2006-07-26 11:32:04 51°11.007 2°36.556 22.0154 4.802913 33.285182 6.837076
2006-07-26 11:33:04 51°11.187 2°36.744 21.97 4.78815 33.212851 6.837076
2006-07-26 11:34:04 51°11.37 2°36.93 21.9244 4.774019 33.132255 6.870785
2006-07-26 11:35:03 51°11.549 2°37.111 21.903 4.763052 33.07567 6.837076
2006-07-26 11:36:04 51°11.733 2°37.307 21.9017 4.756619 33.045971 6.837076
2006-07-26 11:37:04 51°11.917 2°37.495 21.8759 4.75451 33.031119 6.837076
2006-07-26 11:38:04 51°12.104 2°37.671 21.8777 4.752191 33.029764 6.837076
2006-07-26 11:39:04 51°12.285 2°37.861 21.8525 4.754722 33.048952 6.803366
2006-07-26 11:40:04 51°12.478 2°38.008 21.8376 4.759151 33.103343 6.769657
2006-07-26 11:41:04 51°12.668 2°38.175 21.8104 4.7601 33.116505 6.769657
2006-07-26 11:42:04 51°12.859 2°38.342 21.814 4.757254 33.117375 6.769657
2006-07-26 11:43:03 51°13.047 2°38.509 21.7705 4.761683 33.149302 6.803366
2006-07-26 11:44:04 51°13.246 2°38.668 21.7844 4.764531 33.207817 6.769657
2006-07-26 11:45:03 51°13.439 2°38.826 21.7258 4.769065 33.236386 6.803366
2006-07-26 11:46:04 51°13.653 2°38.86 21.6801 4.770543 33.288044 6.769657
2006-07-26 11:47:03 51°13.855 2°38.835 21.5999 4.76854 33.323722 6.769657
2006-07-26 11:48:04 51°14.063 2°38.827 21.4826 4.758101 33.289648 6.803366
2006-07-26 11:49:03 51°14.262 2°38.802 21.4012 4.739964 33.243943 6.938204
2006-07-26 11:50:04 51°14.475 2°38.795 21.3668 4.726994 33.195666 7.005623
2006-07-26 11:51:04 51°14.684 2°38.786 21.3854 4.718558 33.145234 7.005623
2006-07-26 11:52:04 51°14.893 2°38.764 21.4157 4.713179 33.092301 7.039332
2006-07-26 11:53:04 51°15.103 2°38.755 21.3912 4.708855 33.042408 7.039332
2006-07-26 11:54:04 51°15.313 2°38.735 21.4696 4.704743 33.018546 7.039332
2006-07-26 11:55:04 51°15.517 2°38.669 21.5828 4.705691 32.957898 6.971913
2006-07-26 11:56:04 51°15.725 2°38.617 21.4505 4.719188 33.014222 6.904494
2006-07-26 11:57:04 51°15.93 2°38.56 21.3578 4.724146 33.133974 6.904494
2006-07-26 11:58:04 51°16.129 2°38.485 21.3349 4.725729 33.218189 6.904494
2006-07-26 11:59:04 51°16.327 2°38.414 21.2784 4.72689 33.254008 6.870785
2006-07-26 12:00:04 51°16.523 2°38.344 21.1977 4.724148 33.266063 6.837076
2006-07-26 12:01:04 51°16.723 2°38.283 21.1355 4.720459 33.304982 6.938204
2006-07-26 12:02:04 51°16.928 2°38.206 21.1316 4.715925 33.313723 6.971913
2006-07-26 12:03:03 51°17.133 2°38.12 21.2246 4.711601 33.26876 6.971913
2006-07-26 12:04:04 51°17.345 2°38.028 21.35 4.712865 33.204289 6.870785
2006-07-26 12:05:03 51°17.548 2°37.942 21.3288 4.719824 33.178072 6.837076
2006-07-26 12:06:04 51°17.758 2°37.847 21.2808 4.717715 33.183833 6.803366
2006-07-26 12:07:04 51°17.968 2°37.76 21.2474 4.712338 33.179298 6.837076
2006-07-26 12:08:04 51°18.179 2°37.674 21.2888 4.708436 33.156523 6.837076
2006-07-26 12:09:04 51°18.388 2°37.581 21.278 4.709279 33.134925 6.870785
2006-07-26 12:10:04 51°18.597 2°37.503 21.2554 4.714235 33.179329 6.803366
2006-07-26 12:11:04 51°18.802 2°37.427 21.0862 4.728051 33.340289 6.735947
2006-07-26 12:12:03 51°19.004 2°37.357 20.9871 4.731744 33.48006 6.735947
2006-07-26 12:13:04 51°19.212 2°37.286 20.9068 4.729531 33.536292 6.769657
2006-07-26 12:14:04 51°19.417 2°37.216 20.8329 4.72331 33.54944 6.769657
2006-07-26 12:15:04 51°19.627 2°37.165 20.752 4.719621 33.569728 6.769657
2006-07-26 12:16:04 51°19.816 2°37.042 20.7663 4.713927 33.58561 6.735947
2006-07-26 12:17:04 51°19.961 2°36.946 20.7267 4.717829 33.6239 6.702238
2006-07-26 12:18:04 51°20.084 2°36.831 20.7234 4.721309 33.664889 6.668529
2006-07-26 12:19:04 51°20.11 2°36.607 20.8172 4.725001 33.703746 6.668529
2006-07-26 12:20:04 51°20.034 2°36.349 20.7957 4.737548 33.723112 6.634819
2006-07-26 12:21:03 51°20.015 2°36.058 20.715 4.737022 33.752454 6.634819
2006-07-26 12:22:04 51°20.008 2°35.756 20.7136 4.728059 33.740878 6.702238
2006-07-26 12:23:03 51°20.058 2°35.475 20.6554 4.726899 33.729394 6.702238
2006-07-26 12:24:04 51°20.13 2°35.193 20.5972 4.720256 33.727545 6.702238
2006-07-26 12:25:04 51°20.201 2°34.912 20.5917 4.714668 33.717027 6.769657
2006-07-26 12:26:04 51°20.277 2°34.628 20.623 4.715195 33.720148 6.735947
2006-07-26 12:27:04 51°20.35 2°34.34 20.638 4.713718 33.682913 6.668529
2006-07-26 12:28:04 51°20.435 2°34.056 20.5748 4.726478 33.790106 6.668529
2006-07-26 12:29:04 51°20.526 2°33.772 20.5941 4.725635 33.817704 6.702238
2006-07-26 12:30:04 51°20.612 2°33.485 20.618 4.726584 33.808124 6.668529
2006-07-26 12:31:04 51°20.68 2°33.193 20.6558 4.726795 33.812033 6.668529
2006-07-26 12:32:04 51°20.737 2°32.902 20.6219 4.734492 33.8139 6.634819
2006-07-26 12:33:04 51°20.8 2°32.616 20.5245 4.743774 33.949324 6.60111
2006-07-26 12:34:04 51°20.86 2°32.342 20.4591 4.739662 33.975954 6.634819
2006-07-26 12:35:04 51°20.903 2°32.147 20.4254 4.734496 33.991976 6.735947
2006-07-26 12:36:04 51°20.948 2°31.941 20.4079 4.732281 33.994305 6.803366
2006-07-26 12:37:04 51°20.989 2°31.775 20.4084 4.730278 33.994976 6.837076
2006-07-26 12:38:04 51°21.029 2°31.635 20.4316 4.730278 33.994416 6.803366
2006-07-26 12:39:03 51°21.074 2°31.431 20.4557 4.7307 33.975968 6.769657
2006-07-26 12:40:03 51°21.118 2°31.231 20.4934 4.731437 33.966802 6.803366
2006-07-26 12:41:04 51°21.152 2°31.194 20.6171 4.732913 33.93343 6.769657
2006-07-26 12:42:04 51°21.171 2°31.237 20.6074 4.738079 33.892523 6.702238
2006-07-26 12:43:04 51°21.188 2°31.28 20.5748 4.738395 33.907288 6.769657
2006-07-26 12:44:03 51°21.205 2°31.327 20.5696 4.73713 33.916604 6.803366
2006-07-26 12:45:04 51°21.222 2°31.369 20.5955 4.736287 33.919296 6.837076
2006-07-26 12:46:04 51°21.238 2°31.408 20.5728 4.738079 33.916987 6.837076
2006-07-26 12:47:04 51°21.255 2°31.445 20.5675 4.737341 33.923864 6.837076
2006-07-26 12:48:04 51°21.271 2°31.478 20.5752 4.737025 33.924108 6.803366
2006-07-26 12:49:04 51°21.285 2°31.51 20.5541 4.737552 33.923887 6.837076
2006-07-26 12:50:04 51°21.3 2°31.542 20.5243 4.736498 33.93213 6.837076
2006-07-26 12:51:03 51°21.315 2°31.574 20.511 4.735127 33.94565 6.837076
2006-07-26 12:52:04 51°21.328 2°31.606 20.5149 4.734073 33.943312 6.837076
2006-07-26 12:53:04 51°21.344 2°31.636 20.5137 4.734284 33.946124 6.837076
2006-07-26 12:54:04 51°21.395 2°31.706 20.4787 4.7346 33.950341 6.837076
2006-07-26 12:55:03 51°21.426 2°31.948 20.4408 4.732386 33.967729 6.870785
2006-07-26 12:56:04 51°21.369 2°32.265 20.3692 4.730383 33.980699 6.870785
2006-07-26 12:57:04 51°21.29 2°32.592 20.3475 4.726166 33.997163 6.870785
2006-07-26 12:58:04 51°21.216 2°32.925 20.3532 4.725428 33.997385 6.870785
2006-07-26 12:59:03 51°21.144 2°33.258 20.3784 4.725428 33.995139 6.803366
2006-07-26 13:00:04 51°21.069 2°33.601 20.426 4.72374 33.964148 6.803366
2006-07-26 13:01:04 51°20.987 2°33.93 20.5931 4.732598 33.983413 6.735947
2006-07-26 13:02:04 51°20.886 2°34.234 20.6569 4.743457 33.932319 6.735947
2006-07-26 13:03:03 51°20.778 2°34.519 20.6104 4.736602 33.86126 6.702238
2006-07-26 13:04:04 51°20.669 2°34.818 20.5856 4.727744 33.817425 6.702238
2006-07-26 13:05:04 51°20.576 2°35.129 20.58 4.72437 33.809772 6.702238
2006-07-26 13:06:04 51°20.492 2°35.454 20.7237 4.725635 33.811048 6.702238
2006-07-26 13:07:04 51°20.419 2°35.795 20.7858 4.731539 33.753818 6.668529
2006-07-26 13:08:04 51°20.349 2°36.142 20.7542 4.728585 33.698827 6.702238
2006-07-26 13:09:04 51°20.276 2°36.484 20.6859 4.726371 33.694337 6.735947
2006-07-26 13:10:04 51°20.202 2°36.822 20.6625 4.721627 33.710924 6.769657
2006-07-26 13:11:04 51°20.091 2°37.125 20.7083 4.719201 33.699786 6.769657
2006-07-26 13:12:04 51°19.961 2°37.401 20.7619 4.719517 33.667061 6.837076
2006-07-26 13:13:04 51°19.836 2°37.689 20.8448 4.720782 33.637601 6.870785
2006-07-26 13:14:04 51°19.713 2°37.976 20.8779 4.727002 33.624197 6.837076
2006-07-26 13:15:04 51°19.586 2°38.259 20.8633 4.729217 33.623786 6.837076
2006-07-26 13:16:04 51°19.465 2°38.548 20.8503 4.725948 33.608129 6.904494
2006-07-26 13:17:04 51°19.34 2°38.828 20.8668 4.723944 33.595989 6.904494
2006-07-26 13:18:04 51°19.225 2°39.116 20.928 4.724576 33.584083 6.870785
2006-07-26 13:19:04 51°19.097 2°39.373 21.1807 4.726157 33.52035 6.837076
2006-07-26 13:20:04 51°18.966 2°39.627 21.2799 4.720248 33.307611 6.870785
2006-07-26 13:21:04 51°18.837 2°39.886 21.3386 4.71761 33.219291 6.870785
2006-07-26 13:22:04 51°18.708 2°40.149 21.3895 4.720246 33.188852 6.837076
2006-07-26 13:23:04 51°18.578 2°40.412 21.4167 4.723198 33.181752 6.870785
2006-07-26 13:24:04 51°18.443 2°40.682 21.3505 4.726361 33.177395 6.837076
2006-07-26 13:25:04 51°18.307 2°40.956 21.1996 4.721933 33.227218 6.904494
2006-07-26 13:26:04 51°18.171 2°41.232 21.1777 4.714975 33.255739 7.005623
2006-07-26 13:27:04 51°18.037 2°41.506 21.1627 4.713288 33.262781 7.005623
2006-07-26 13:28:04 51°17.892 2°41.761 21.162 4.712656 33.268511 7.005623
2006-07-26 13:29:04 51°17.754 2°42.012 21.4158 4.711601 33.251049 7.005623
2006-07-26 13:30:04 51°17.619 2°42.262 21.5188 4.70759 33.0277 7.073042
2006-07-26 13:31:04 51°17.484 2°42.514 21.5086 4.700734 32.917966 7.207879
2006-07-26 13:32:04 51°17.35 2°42.773 21.527 4.699152 32.897148 7.207879
2006-07-26 13:33:04 51°17.203 2°43.021 21.4309 4.698203 32.888131 7.241589
2006-07-26 13:34:04 51°17.061 2°43.278 21.4194 4.694303 32.92383 7.342717
2006-07-26 13:35:04 51°16.925 2°43.544 21.4002 4.697256 32.953886 7.275298
2006-07-26 13:36:03 51°16.779 2°43.782 21.3616 4.698732 32.978167 7.275298
2006-07-26 13:37:04 51°16.63 2°44.028 21.3846 4.700631 33.017434 7.241589
2006-07-26 13:38:04 51°16.482 2°44.265 21.4155 4.704427 33.036706 7.241589
2006-07-26 13:39:04 51°16.327 2°44.481 21.4977 4.707379 33.028158 7.241589
2006-07-26 13:40:04 51°16.173 2°44.698 21.4297 4.708538 32.991309 7.410136
2006-07-26 13:41:04 51°16.074 2°44.995 21.4309 4.700525 32.972709 7.544973
2006-07-26 13:42:04 51°16.023 2°45.336 21.4924 4.702212 32.977516 7.477554
2006-07-26 13:43:04 51°15.96 2°45.67 21.4882 4.709803 32.98911 7.410136
2006-07-26 13:44:04 51°15.896 2°46.006 21.4632 4.706007 32.972501 7.612392
2006-07-26 13:45:04 51°15.835 2°46.351 21.5868 4.700524 32.937897 7.511264
2006-07-26 13:46:04 51°15.775 2°46.7 21.7109 4.71286 32.934171 7.275298
2006-07-26 13:47:04 51°15.711 2°47.047 21.8071 4.722876 32.925006 7.207879
2006-07-26 13:48:04 51°15.643 2°47.393 21.7837 4.729097 32.904624 7.14046
2006-07-26 13:49:04 51°15.586 2°47.742 21.7685 4.725512 32.902746 7.207879
2006-07-26 13:50:04 51°15.523 2°48.085 21.8356 4.723825 32.894281 7.17417
2006-07-26 13:51:04 51°15.447 2°48.417 21.895 4.728991 32.867876 7.073042
2006-07-26 13:52:04 51°15.397 2°48.761 21.9548 4.737743 32.903237 7.073042
2006-07-26 13:53:04 51°15.356 2°49.115 22.1385 4.74428 32.89175 7.005623
2006-07-26 13:54:04 51°15.315 2°49.469 22.2046 4.749445 32.805226 6.938204
2006-07-26 13:55:04 51°15.26 2°49.812 22.2406 4.738476 32.675271 7.17417
2006-07-26 13:56:04 51°15.222 2°50.162 22.3158 4.728141 32.577607 7.342717
2006-07-26 13:57:04 51°15.169 2°50.506 22.3655 4.723922 32.485585 7.477554
2006-07-26 13:58:04 51°15.138 2°50.859 22.4149 4.720019 32.419095 7.679811
2006-07-26 13:59:04 51°15.093 2°51.207 22.4289 4.719808 32.385157 7.814648
2006-07-26 14:00:04 51°15.056 2°51.558 22.4787 4.717382 32.35292 7.780939
2006-07-26 14:01:04 51°15.023 2°51.912 22.7816 4.719173 32.29432 7.71352
2006-07-26 14:02:04 51°14.984 2°52.26 22.862 4.733722 32.218931 7.814648
2006-07-26 14:03:04 51°14.939 2°52.608 22.8951 4.731823 32.157887 8.084324
2006-07-26 14:04:04 51°14.883 2°52.949 22.9488 4.731927 32.112261 8.185452
2006-07-26 14:05:04 51°14.821 2°53.284 22.9814 4.727392 32.053204 8.28658
2006-07-26 14:06:04 51°14.777 2°53.623 23.0058 4.72697 32.028385 8.353999
2006-07-26 14:07:04 51°14.723 2°53.81 23.1099 4.734457 32.053255 8.320289
2006-07-26 14:08:04 51°14.678 2°53.885 23.1239 4.741521 32.045504 8.320289
2006-07-26 14:09:04 51°14.645 2°53.93 23.1309 4.741521 32.03523 8.252871
2006-07-26 14:10:04 51°14.615 2°53.969 23.1679 4.738357 32.010811 8.185452
2006-07-26 14:11:04 51°14.586 2°54.015 23.3113 4.738567 31.965567 8.118033
2006-07-26 14:12:04 51°14.554 2°54.083 23.448 4.745103 31.920133 7.949486
2006-07-26 14:13:04 51°14.532 2°54.173 23.5771 4.753748 31.880274 7.814648
2006-07-26 14:14:04 51°14.524 2°54.261 23.6324 4.759863 31.846772 7.780939
2006-07-26 14:15:03 51°14.523 2°54.345 23.6927 4.76176 31.821186 7.814648
2006-07-26 14:16:03 51°14.523 2°54.426 23.7088 4.764185 31.79675 7.848358
2006-07-26 14:17:04 51°14.522 2°54.499 23.6982 4.76313 31.784095 7.882067
2006-07-26 14:18:04 51°14.493 2°54.568 23.6712 4.761443 31.776741 7.848358
2006-07-26 14:19:04 51°14.477 2°54.49 23.6122 4.758807 31.784746 8.118033
2006-07-26 14:20:04 51°14.515 2°54.408 23.5658 4.754906 31.783303 8.016905
2006-07-26 14:21:04 51°14.513 2°54.445 23.5627 4.752481 31.78861 8.151742
2006-07-26 14:22:03 51°14.525 2°54.478 23.429 4.750584 31.813239 8.28658
2006-07-26 14:23:03 51°14.546 2°54.502 23.5151 4.743098 31.822456 8.252871
2006-07-26 14:24:03 51°14.606 2°54.612 23.4049 4.748264 31.799687 8.252871
2006-07-26 14:25:04 51°14.529 2°54.803 23.3616 4.742254 31.814195 8.28658
2006-07-26 14:26:04 51°14.39 2°55.033 23.3126 4.737615 31.842968 8.623674
2006-07-26 14:27:04 51°14.274 2°55.248 23.7035 4.731393 31.779772 8.623674
2006-07-26 14:28:03 51°14.174 2°55.377 23.8096 4.655251 30.965798 8.960768
2006-07-26 14:29:03 51°14.067 2°55.457 23.863 4.584179 30.376781 9.163024
2006-07-26 14:30:04 51°13.962 2°55.531 24.0122 4.493605 29.658466 9.095606
2006-07-26 14:31:07 51°13.851 2°55.612 23.9905 4.361394 28.617993 9.129315
2006-07-26 14:32:07 51°13.767 2°55.702 23.9758 4.307418 28.23027 9.297862
2006-07-26 14:33:07 51°13.693 2°55.829 24.2017 4.257556 27.865667 9.230443
2006-07-26 14:34:07 51°13.644 2°55.932 24.1973 4.070671 26.391471 9.4327
2006-07-26 14:35:07 51°13.615 2°56.016 24.1965 4.057075 26.300125 9.39899
2006-07-26 14:36:07 51°13.606 2°56.08 24.2775 3.974134 25.673943 9.4327
2006-07-26 14:37:07 51°13.602 2°56.096 24.2702 3.965702 25.582546 9.365281